• Join FlightAware (Why Join?)
  • Login
  • US Flag 
02:38AM EDT


 

Airport Tracker/Info


-or-


 

Live Flight TrackerFlight Track Log ✈ AWE3417 ✈ 02-May-2014 ✈ KDCA - KCMH

Flight Track Log - Related Links

Times and Time Zones

All times are in EDT time to prevent confusion due to time zone crossing. See the AWE3417 flight status page for this flight to view local times or setup timezone preferences in your user account.

Time Position Orientation Groundspeed Altitude Reporting Facility
EDT Latitude Longitude Course Direction KTS MPH feet Rate Location/Type
07:49PM 38.8667 -77.0500 270° West 137 158 1,200  Level Potomac TRACON
07:50PM 38.9000 -77.1000 311° West 185 213 2,800 1,980 Climbing Potomac TRACON
07:51PM 38.9500 -77.1500 322° Northwest 251 289 5,200 2,940 Climbing Potomac TRACON
07:52PM 38.9333 -77.4974 270° West  Level FlightAware Approximate
07:52PM 39.0000 -77.2167 314° West 269 310 8,700  Level Potomac TRACON
07:53PM 38.9333 -77.6219 270° West  Level FlightAware Approximate
07:53PM 38.9942 -77.3569 267° West 283 326 11,800  Level Washington Center
07:54PM 38.9333 -77.7465 270° West  Level FlightAware Approximate
07:54PM 38.9906 -77.4636 268° West 294 338 14,500  Level Washington Center
07:55PM 38.9869 -77.5650 267° West 305 351 17,000 2,580 Climbing Washington Center
07:56PM 38.9828 -77.6878 268° West 316 364 19,800 2,400 Climbing Washington Center
07:57PM 38.9789 -77.7892 267° West 316 364 21,900 2,040 Climbing Washington Center
07:58PM 38.9744 -77.9039 267° West 316 364 23,900 1,800 Climbing Washington Center
07:59PM 38.9683 -78.0158 266° West 321 369 25,600 1,560 Climbing Washington Center
08:00PM 38.9636 -78.1331 267° West 327 376 27,100 1,320 Climbing Washington Center
08:01PM 38.9611 -78.2478 268° West 327 376 28,200 1,020 Climbing Washington Center
08:02PM 38.9708 -78.3711 276° West 333 383 29,200 840 Climbing Washington Center
08:03PM 38.9783 -78.4942 275° West 343 395 30,000 600 Climbing Washington Center
08:04PM 38.9878 -78.6228 275° West 355 409 30,500 480 Climbing Washington Center
08:05PM 38.9947 -78.7539 274° West 365 420 31,000 240 Climbing Washington Center
08:06PM 39.0039 -78.8878 275° West 371 427 31,000  Level Washington Center
08:07PM 39.0106 -79.0192 274° West 371 427 31,000  Level Washington Center
08:08PM 39.0169 -79.1531 274° West 376 433 31,000  Level Washington Center
08:09PM 39.0256 -79.2844 275° West 376 433 31,000  Level Washington Center
08:10PM 39.0339 -79.4158 275° West 376 433 31,000  Level Washington Center
08:11PM 39.0422 -79.5497 275° West 376 433 31,000  Level Washington Center
08:12PM 39.0564 -79.6842 278° West 376 433 31,000  Level Washington Center
08:13PM 39.0642 -79.8183 274° West 381 438 31,000  Level Washington Center
08:14PM 39.0722 -79.9497 275° West 381 438 31,000  Level Washington Center
08:16PM 39.0850 -80.2392 273° West 371 427 31,000  Level Indianapolis Center
08:17PM 39.0939 -80.3969 274° West 371 427 31,000  Level Indianapolis Center
08:18PM 39.1006 -80.5281 274° West 371 427 31,000  Level Indianapolis Center
08:19PM 39.1075 -80.6594 274° West 370 426 31,000  Level Indianapolis Center
08:20PM 39.1142 -80.7894 274° West 369 425 31,000 -480 Level Indianapolis Center
08:21PM 39.1225 -80.9189 275° West 368 423 30,100 -1,380 Descending Indianapolis Center
08:22PM 39.1628 -81.0464 292° West 387 445 28,200 -1,860 Descending Indianapolis Center
08:24PM 39.2056 -81.1722 294° West 388 447 26,300 -2,040 Descending Indianapolis Center
08:25PM 39.2542 -81.3183 293° West 377 434 24,100 -1,860 Descending Indianapolis Center
08:26PM 39.2942 -81.4414 293° West 373 429 22,600 -1,620 Descending Indianapolis Center
08:27PM 39.3358 -81.5700 293° West 385 443 20,800 -1,740 Descending Indianapolis Center
08:28PM 39.3769 -81.6936 293° West 381 438 19,100 -1,680 Descending Indianapolis Center
08:29PM 39.4167 -81.8161 293° West 376 433 17,400 -1,680 Descending Indianapolis Center
08:30PM 39.4564 -81.9361 293° West 368 423 15,700 -1,860 Descending Indianapolis Center
08:31PM 39.4992 -82.0714 292° West 356 410 13,700 -1,860 Descending Indianapolis Center
08:32PM 39.5497 -82.1836 300° West 352 405 12,000 -1,560 Descending Indianapolis Center
08:33PM 39.6200 -82.2700 317° Northwest 351 404 10,500 -1,020 Descending Indianapolis Center
08:34PM 39.6742 -82.3442 314° West 290 334 10,000 -900 Descending Indianapolis Center
08:35PM 39.7286 -82.4150 315° West 259 298 8,800 -1,380 Descending Indianapolis Center
08:36PM 39.7831 -82.4886 314° West 266 306 7,300 -1,380 Descending Indianapolis Center
08:37PM 39.8333 -82.5561 314° West 263 303 6,100 -1,200 Descending Indianapolis Center
08:38PM 39.8878 -82.6272 315° West 258 297 4,800 -1,020 Descending Indianapolis Center
08:39PM 39.9425 -82.6964 316° Northwest 258 297 4,000 -840 Descending Indianapolis Center
08:40PM 39.9867 -82.7556 314° West 246 283 3,100 -1,020 Descending Indianapolis Center
08:41PM 39.9967 -82.8108 283° West 132 152 1,900 -960 Descending Indianapolis Center
08:42PM 40.0008 -82.8558 277° West 154 177 1,200 -720 Descending Indianapolis Center
08:44PM 39.9833 -82.8833 311° West  Level FlightAware Approximate